Terminal Aerodrome Forecast
Issued by NWS Wakefield, VA

Home | Current Version | Previous Version | Text Only | Print | Product List | Glossary On
Versions: 1 2 3 4 5 6 7 8 9 10 11 12 13 14
000
FTUS41 KAKQ 251909 AAA
TAFRIC
TAF AMD
KRIC 251909Z 2519/2618 23011G18KT P6SM SCT050 SCT250
     FM252300 20007KT P6SM SCT250
     FM260900 17004KT P6SM BKN100
     FM261100 VRB03KT 3SM BR BKN010
     FM261300 VRB03KT P6SM BKN035=

USA.gov is the U.S. government's official web portal to all federal, state and local government web resources and services.